首页
METAR-TAF:

METAR-TAF

机场 :

柏林-泰格尔奥托·利林塔尔机场

柏林, 德国

纬度: 52-34N, 经度: 013-19E, 海拔: 37米

当前天气观测

该预报发布于23分钟前的14:20 UTC
风速3节,风向多变
温度 35°C
湿度 23%
气压 1018 hPa
能见度10公里或以上
1500米以下无云,无积雨云

METAR: EDDT 081420Z VRB03KT CAVOK 35/11 Q1018 NOSIG

时间: 16:43 (14:43 UTC)

预报

该预报发布于3小时和43分钟前的11:00 UTC
预报有效从08日的 12点(UTC)到 09日的 12点(UTC)
风速6节,风向东南
能见度10公里或以上
1500米以下无云,无积雨云
成为
从 08日的 14点(UTC)到 08日的 16点(UTC)
风速5节,风向东转东北
成为
从 08日的 18点(UTC)到 08日的 20点(UTC)
风速4节,风向东转东南

TAF: EDDT 081100Z 0812/0912 14006KT CAVOK BECMG 0814/0816 06005KT BECMG 0818/0820 12004KT

超过4000个机场的气象观测和天气预报(METAR&TAF报告)。

可查询的气象台以黄色和红色小点在地图上表示。

将鼠标移到小点上方,可查看气象台名称。

然后点击查看天气观测和预报。

如需切换地图:点击带黑十字的绿色按钮放大地图;点击带横线的绿色按钮缩小地图;或者点击绿色箭头查看邻近地区的地图。


METAR-TAF: